This is the latest recevied weather packets stored in our database for station/object SP2NBH-2. If no packets are shown the sender has not sent any weather packets the latest 10 day(s).
| Time | Temp. | Humidity | Pressure | Rain* | Wind** | Luminosity | Snow |
|---|---|---|---|---|---|---|---|
| 1777560065 | 13.89° C | 44% | 1028.7 hPa | - | - | - | - |
| 1777559165 | 17.22° C | 33% | 1028.5 hPa | - | - | - | - |
| 1777558306 | 19.44° C | 28% | 1028.5 hPa | - | - | - | - |
| 1777558265 | 19.44° C | 28% | 1028.5 hPa | - | - | - | - |
| 1777557365 | 19.44° C | 28% | 1028.6 hPa | - | - | - | - |
| 1777556524 | 20° C | 27% | 1028.7 hPa | - | - | - | - |
| 1777556465 | 20° C | 27% | 1028.7 hPa | - | - | - | - |
| 1777555565 | 24.44° C | 25% | 1028.7 hPa | - | - | - | - |
| 1777553766 | 21.67° C | 28% | 1029 hPa | - | - | - | - |
| 1777552866 | 20.56° C | 28% | 1029 hPa | - | - | - | - |
| 1777551966 | 19.44° C | 30% | 1029.1 hPa | - | - | - | - |
| 1777551066 | 20° C | 30% | 1029.3 hPa | - | - | - | - |
| 1777550166 | 17.78° C | 31% | 1029.4 hPa | - | - | - | - |
| 1777549266 | 18.33° C | 29% | 1029.6 hPa | - | - | - | - |
| 1777548408 | 17.78° C | 32% | 1029.5 hPa | - | - | - | - |
| 1777548366 | 17.78° C | 32% | 1029.5 hPa | - | - | - | - |
| 1777547538 | 16.67° C | 31% | 1029.6 hPa | - | - | - | - |
| 1777547466 | 16.67° C | 31% | 1029.6 hPa | - | - | - | - |
| 1777546566 | 16.11° C | 30% | 1029.4 hPa | - | - | - | - |
| 1777545666 | 16.11° C | 30% | 1029.5 hPa | - | - | - | - |
| 1777544765 | 16.67° C | 30% | 1029.7 hPa | - | - | - | - |
| 1777543865 | 14.44° C | 31% | 1029.9 hPa | - | - | - | - |
| 1777542965 | 15° C | 31% | 1030.1 hPa | - | - | - | - |
| 1777542154 | 15° C | 30% | 1030.2 hPa | - | - | - | - |
| 1777542065 | 15° C | 30% | 1030.2 hPa | - | - | - | - |
* Rain since midnight (hover to see other rain measurements)
** Current wind speed in m/s (hover to see current wind gust speed)